createdAt,value
2022-10-31T00:01:23.202Z,23.10
2022-10-31T00:03:51.142Z,23.10
2022-10-31T00:06:21.633Z,23.10
2022-10-31T00:08:53.107Z,23.20
2022-10-31T00:11:21.497Z,23.20
2022-10-31T00:13:49.833Z,23.20
2022-10-31T00:16:17.413Z,23.30
2022-10-31T00:18:45.325Z,23.30
2022-10-31T00:21:12.869Z,23.40
2022-10-31T00:23:40.376Z,23.40
2022-10-31T00:26:08.079Z,23.40
2022-10-31T00:28:35.762Z,23.50
2022-10-31T00:31:04.577Z,23.50
2022-10-31T00:33:32.164Z,23.60
2022-10-31T00:36:00.481Z,23.60
2022-10-31T00:38:27.941Z,23.70
2022-10-31T00:40:56.002Z,23.70
2022-10-31T00:43:24.410Z,23.80
2022-10-31T00:45:52.114Z,23.90
2022-10-31T00:48:19.659Z,23.90
2022-10-31T00:50:47.245Z,23.90
2022-10-31T00:53:14.957Z,24.00
2022-10-31T00:55:42.737Z,24.00
2022-10-31T00:58:10.671Z,24.10
2022-10-31T01:00:38.361Z,24.20
2022-10-31T01:03:07.343Z,24.20
2022-10-31T01:05:37.619Z,24.30
2022-10-31T01:08:05.221Z,24.40
2022-10-31T01:10:32.982Z,24.40
2022-10-31T01:13:01.362Z,24.50
2022-10-31T01:15:29.817Z,24.60
2022-10-31T01:17:57.945Z,24.60
2022-10-31T01:20:25.728Z,24.70
2022-10-31T01:22:53.808Z,24.80
2022-10-31T01:25:21.979Z,24.90
2022-10-31T01:27:50.609Z,25.00
2022-10-31T01:30:18.239Z,25.10
2022-10-31T01:32:46.876Z,25.20
2022-10-31T01:35:15.654Z,25.30
2022-10-31T01:37:45.595Z,25.40
2022-10-31T01:40:13.647Z,25.50
2022-10-31T01:42:42.355Z,25.60
2022-10-31T01:45:12.237Z,25.70
2022-10-31T01:47:43.803Z,25.70
2022-10-31T01:50:14.981Z,25.80
2022-10-31T01:52:48.737Z,25.90
2022-10-31T01:55:19.767Z,26.00
2022-10-31T01:57:49.863Z,26.10
2022-10-31T02:00:18.860Z,26.10
2022-10-31T02:02:47.150Z,26.20
2022-10-31T02:05:17.202Z,26.30
2022-10-31T02:07:48.614Z,26.40
2022-10-31T02:10:16.638Z,26.40
2022-10-31T02:12:44.385Z,26.50
2022-10-31T02:15:13.208Z,26.60
2022-10-31T02:17:42.628Z,26.70
2022-10-31T02:20:16.608Z,26.80
2022-10-31T02:22:48.617Z,26.90
2022-10-31T02:25:48.795Z,27.00
2022-10-31T02:28:35.669Z,27.00
2022-10-31T02:31:19.632Z,27.10
2022-10-31T02:33:52.406Z,27.20
2022-10-31T02:36:39.072Z,27.30
2022-10-31T02:39:14.816Z,27.30
2022-10-31T02:41:47.233Z,27.40
2022-10-31T02:44:43.944Z,27.40
2022-10-31T02:47:20.728Z,27.50
2022-10-31T02:50:07.282Z,27.50
2022-10-31T02:52:35.894Z,27.60
2022-10-31T02:55:14.958Z,27.70
2022-10-31T02:57:44.012Z,27.70
2022-10-31T03:00:12.063Z,27.80
2022-10-31T03:02:51.895Z,27.80
2022-10-31T03:05:19.885Z,27.80
2022-10-31T03:08:10.594Z,27.90
2022-10-31T03:10:58.361Z,28.00
2022-10-31T03:13:52.491Z,28.00
2022-10-31T03:16:24.591Z,28.00
2022-10-31T03:19:07.162Z,28.10
2022-10-31T03:21:38.829Z,28.20
2022-10-31T03:24:08.236Z,28.20
2022-10-31T03:26:41.046Z,28.20
2022-10-31T03:29:09.927Z,28.20
2022-10-31T03:31:40.880Z,28.30
2022-10-31T03:34:10.705Z,28.30
2022-10-31T03:36:40.314Z,28.30
2022-10-31T03:39:11.236Z,28.40
2022-10-31T03:41:41.344Z,28.40
2022-10-31T03:44:18.452Z,28.50
2022-10-31T03:46:46.716Z,28.50
2022-10-31T03:49:14.813Z,28.50
2022-10-31T03:51:48.555Z,28.60
2022-10-31T03:54:31.550Z,28.60
2022-10-31T03:57:03.160Z,28.70
2022-10-31T03:59:34.034Z,28.70
2022-10-31T04:02:08.541Z,28.70
2022-10-31T04:04:37.402Z,28.70
2022-10-31T04:07:05.847Z,28.70
2022-10-31T04:09:35.030Z,28.70
2022-10-31T04:12:04.779Z,28.70
2022-10-31T04:14:34.356Z,28.80
2022-10-31T04:17:02.990Z,28.80
2022-10-31T04:19:30.795Z,28.80
2022-10-31T04:21:59.596Z,28.80
2022-10-31T04:24:28.781Z,28.90
2022-10-31T04:27:01.246Z,28.90
2022-10-31T04:29:28.861Z,28.90
2022-10-31T04:32:01.673Z,28.90
2022-10-31T04:34:31.801Z,28.90
2022-10-31T04:37:02.127Z,28.90
2022-10-31T04:39:29.737Z,28.90
2022-10-31T04:41:57.632Z,29.00
2022-10-31T04:44:25.650Z,29.10
2022-10-31T04:46:53.876Z,29.10
2022-10-31T04:49:22.233Z,29.20
2022-10-31T04:51:50.043Z,29.30
2022-10-31T04:54:17.589Z,29.30
2022-10-31T04:56:45.113Z,29.40
2022-10-31T04:59:15.340Z,29.40
2022-10-31T05:01:43.213Z,29.50
2022-10-31T05:04:11.623Z,29.60
2022-10-31T05:06:39.244Z,29.60
2022-10-31T05:09:08.113Z,29.60
2022-10-31T05:11:35.734Z,29.70
2022-10-31T05:14:03.766Z,29.80
2022-10-31T05:16:32.976Z,29.80
2022-10-31T05:19:00.587Z,29.80
2022-10-31T05:21:28.169Z,29.80
2022-10-31T05:23:55.737Z,29.80
2022-10-31T05:26:23.292Z,29.80
2022-10-31T05:28:51.189Z,29.80
2022-10-31T05:31:18.838Z,29.80
2022-10-31T05:33:47.110Z,29.80
2022-10-31T05:36:15.474Z,29.90
2022-10-31T05:38:42.983Z,30.00
2022-10-31T05:41:11.298Z,30.00
2022-10-31T05:43:47.740Z,30.00
2022-10-31T05:46:16.020Z,30.00
2022-10-31T05:48:43.737Z,30.00
2022-10-31T05:51:14.286Z,30.00
2022-10-31T05:53:42.103Z,30.00
2022-10-31T05:56:09.776Z,29.90
2022-10-31T05:58:38.360Z,29.80
2022-10-31T06:01:07.655Z,29.80
2022-10-31T06:03:36.387Z,29.70
2022-10-31T06:06:03.967Z,29.70
2022-10-31T06:08:31.774Z,29.80
2022-10-31T06:10:59.300Z,29.80
2022-10-31T06:13:30.647Z,29.90
2022-10-31T06:15:58.910Z,29.90
2022-10-31T06:18:39.688Z,29.90
2022-10-31T06:21:07.514Z,29.90
2022-10-31T06:23:36.091Z,30.00
2022-10-31T06:26:04.237Z,30.10
2022-10-31T06:28:32.343Z,30.10
2022-10-31T06:31:00.333Z,30.10
2022-10-31T06:33:30.377Z,30.10
2022-10-31T06:35:58.602Z,30.10
2022-10-31T06:38:27.262Z,30.10
2022-10-31T06:40:55.020Z,30.10
2022-10-31T06:43:23.673Z,30.00
2022-10-31T06:45:52.035Z,30.00
2022-10-31T06:48:20.832Z,30.00
2022-10-31T06:50:49.208Z,30.00
2022-10-31T06:53:18.564Z,30.00
2022-10-31T06:55:47.589Z,30.00
2022-10-31T06:58:15.127Z,30.00
2022-10-31T07:00:45.448Z,30.10
2022-10-31T07:03:14.105Z,30.20
2022-10-31T07:05:42.755Z,30.20
2022-10-31T07:08:12.063Z,30.20
2022-10-31T07:10:41.018Z,30.20
2022-10-31T07:13:12.129Z,30.30
2022-10-31T07:15:41.623Z,30.30
2022-10-31T07:18:10.889Z,30.40
2022-10-31T07:20:40.004Z,30.30
2022-10-31T07:23:07.948Z,30.30
2022-10-31T07:25:35.901Z,30.20
2022-10-31T07:28:04.485Z,30.20
2022-10-31T07:30:34.615Z,30.20
2022-10-31T07:33:04.996Z,30.20
2022-10-31T07:35:32.658Z,30.20
2022-10-31T07:38:08.582Z,30.20
2022-10-31T07:40:39.155Z,30.20
2022-10-31T07:43:11.489Z,30.10
2022-10-31T07:45:42.051Z,30.10
2022-10-31T07:48:12.085Z,30.10
2022-10-31T07:50:40.529Z,30.10
2022-10-31T07:53:10.785Z,30.10
2022-10-31T07:55:38.971Z,30.10
2022-10-31T07:58:13.177Z,30.10
2022-10-31T08:00:44.273Z,30.20
2022-10-31T08:03:13.432Z,30.20
2022-10-31T08:05:42.429Z,30.20
2022-10-31T08:08:20.144Z,30.20
2022-10-31T08:10:50.104Z,30.30
2022-10-31T08:13:17.704Z,30.30
2022-10-31T08:15:45.794Z,30.40
2022-10-31T08:18:16.858Z,30.40
2022-10-31T08:20:44.984Z,30.40
2022-10-31T08:23:13.146Z,30.40
2022-10-31T08:25:40.977Z,30.40
2022-10-31T08:28:09.291Z,30.40
2022-10-31T08:30:38.001Z,30.30
2022-10-31T08:33:13.105Z,30.30
2022-10-31T08:35:41.984Z,30.30
2022-10-31T08:38:10.505Z,30.20
2022-10-31T08:40:38.632Z,30.20
2022-10-31T08:43:16.589Z,30.20
2022-10-31T08:45:51.923Z,30.20
2022-10-31T08:48:19.625Z,30.20
2022-10-31T08:50:48.391Z,30.20
2022-10-31T08:53:17.997Z,30.20
2022-10-31T08:55:49.377Z,30.20
2022-10-31T08:58:18.629Z,30.10
2022-10-31T09:00:47.138Z,30.10
2022-10-31T09:03:16.100Z,30.10
2022-10-31T09:05:44.123Z,30.00
2022-10-31T09:08:16.351Z,30.00
2022-10-31T09:10:44.813Z,29.90
2022-10-31T09:13:13.736Z,29.90
2022-10-31T09:15:42.310Z,29.80
2022-10-31T09:18:10.383Z,29.80
2022-10-31T09:20:39.345Z,29.80
2022-10-31T09:23:17.484Z,29.70
2022-10-31T09:25:50.188Z,29.70
2022-10-31T09:28:21.244Z,29.70
2022-10-31T09:30:49.838Z,29.60
2022-10-31T09:33:18.293Z,29.60
2022-10-31T09:35:49.104Z,29.60
2022-10-31T09:38:19.552Z,29.60
2022-10-31T09:40:56.010Z,29.60
2022-10-31T09:43:35.723Z,29.60
2022-10-31T09:46:19.896Z,29.60
2022-10-31T09:49:07.510Z,29.60
2022-10-31T09:51:42.320Z,29.60
2022-10-31T09:54:27.209Z,29.60
2022-10-31T09:56:55.201Z,29.50
2022-10-31T09:59:29.780Z,29.60
2022-10-31T10:02:12.769Z,29.60
2022-10-31T10:04:48.666Z,29.50
2022-10-31T10:07:43.419Z,29.50
2022-10-31T10:10:15.321Z,29.50
2022-10-31T10:13:09.299Z,29.40
2022-10-31T10:15:54.725Z,29.40
2022-10-31T10:18:40.879Z,29.40
2022-10-31T10:21:08.348Z,29.40
2022-10-31T10:23:48.293Z,29.30
2022-10-31T10:26:22.173Z,29.30
2022-10-31T10:29:02.451Z,29.30
2022-10-31T10:31:33.448Z,29.30
2022-10-31T10:34:19.570Z,29.20
2022-10-31T10:36:53.894Z,29.20
2022-10-31T10:39:31.946Z,29.20
2022-10-31T10:42:19.405Z,29.10
2022-10-31T10:45:07.321Z,29.10
2022-10-31T10:47:45.088Z,29.00
2022-10-31T10:50:19.131Z,29.00
2022-10-31T10:52:51.107Z,28.90
2022-10-31T10:55:38.010Z,28.90
2022-10-31T10:58:08.571Z,28.90
2022-10-31T11:00:38.524Z,28.90
2022-10-31T11:03:07.562Z,28.90
2022-10-31T11:05:41.399Z,28.90
2022-10-31T11:08:10.168Z,28.80
2022-10-31T11:10:38.214Z,28.80
2022-10-31T11:13:06.347Z,28.80
2022-10-31T11:15:37.272Z,28.70
2022-10-31T11:18:05.763Z,28.70
2022-10-31T11:20:37.294Z,28.70
2022-10-31T11:23:06.808Z,28.70
2022-10-31T11:25:35.586Z,28.60
2022-10-31T11:28:07.347Z,28.60
2022-10-31T11:30:43.880Z,28.60
2022-10-31T11:33:37.265Z,28.50
2022-10-31T11:36:17.334Z,28.40
2022-10-31T11:38:46.306Z,28.40
2022-10-31T11:41:33.938Z,28.30
2022-10-31T11:44:03.576Z,28.30
2022-10-31T11:46:40.307Z,28.20
2022-10-31T11:49:15.759Z,28.20
2022-10-31T11:51:43.598Z,28.10
2022-10-31T11:54:19.957Z,28.10
2022-10-31T11:56:49.043Z,28.10
2022-10-31T11:59:18.720Z,28.00
2022-10-31T12:01:50.815Z,28.00
2022-10-31T12:04:19.616Z,28.00
2022-10-31T12:06:48.060Z,28.00
2022-10-31T12:09:19.475Z,28.00
2022-10-31T12:11:50.901Z,27.90
2022-10-31T12:14:34.371Z,27.90
2022-10-31T12:17:01.883Z,27.90
2022-10-31T12:19:32.192Z,27.90
2022-10-31T12:22:02.912Z,27.80
2022-10-31T12:24:36.567Z,27.80
2022-10-31T12:27:16.951Z,27.80
2022-10-31T12:29:59.903Z,27.70
2022-10-31T12:32:31.417Z,27.70
2022-10-31T12:35:00.791Z,27.70
2022-10-31T12:37:32.287Z,27.70
2022-10-31T12:40:23.796Z,27.70
2022-10-31T12:42:54.111Z,27.60
2022-10-31T12:45:21.683Z,27.60
2022-10-31T12:47:59.255Z,27.60
2022-10-31T12:50:36.321Z,27.60
2022-10-31T12:53:05.018Z,27.50
2022-10-31T12:55:45.972Z,27.50
2022-10-31T12:58:29.142Z,27.50
2022-10-31T13:01:08.907Z,27.40
2022-10-31T13:03:54.624Z,27.40
2022-10-31T13:06:24.356Z,27.40
2022-10-31T13:09:00.677Z,27.30
2022-10-31T13:11:37.305Z,27.30
2022-10-31T13:14:08.931Z,27.30
2022-10-31T13:16:39.231Z,27.20
2022-10-31T13:19:23.739Z,27.20
2022-10-31T13:22:05.353Z,27.10
2022-10-31T13:24:39.349Z,27.10
2022-10-31T13:27:26.980Z,27.10
2022-10-31T13:30:06.730Z,27.00
2022-10-31T13:32:49.289Z,27.00
2022-10-31T13:35:31.840Z,26.90
2022-10-31T13:38:06.908Z,26.90
2022-10-31T13:40:35.136Z,26.90
2022-10-31T13:43:14.657Z,26.90
2022-10-31T13:45:56.733Z,26.80
2022-10-31T13:48:27.141Z,26.80
2022-10-31T13:51:02.407Z,26.80
2022-10-31T13:53:40.948Z,26.80
2022-10-31T13:56:24.517Z,26.70
2022-10-31T13:59:24.326Z,26.70
2022-10-31T14:02:01.366Z,26.70
2022-10-31T14:07:29.135Z,26.60
2022-10-31T14:10:06.736Z,26.60
2022-10-31T14:12:38.104Z,26.60
2022-10-31T14:15:13.697Z,26.60
2022-10-31T14:17:48.305Z,26.60
2022-10-31T14:20:15.883Z,26.60
2022-10-31T14:22:44.609Z,26.60
2022-10-31T14:25:30.468Z,26.60
2022-10-31T14:27:58.756Z,26.50
2022-10-31T14:30:28.996Z,26.50
2022-10-31T14:33:01.858Z,26.50
2022-10-31T14:35:40.187Z,26.50
2022-10-31T14:38:33.646Z,26.50
2022-10-31T14:41:02.147Z,26.50
2022-10-31T14:43:48.090Z,26.50
2022-10-31T14:46:19.672Z,26.50
2022-10-31T14:48:54.572Z,26.50
2022-10-31T14:51:26.763Z,26.40
2022-10-31T14:53:56.002Z,26.40
2022-10-31T14:56:28.486Z,26.40
2022-10-31T14:58:58.837Z,26.40
2022-10-31T15:01:30.613Z,26.40
2022-10-31T15:04:24.068Z,26.40
2022-10-31T15:07:24.679Z,26.40
2022-10-31T15:10:00.160Z,26.40
2022-10-31T15:12:32.783Z,26.40
2022-10-31T15:15:12.531Z,26.40
2022-10-31T15:17:45.049Z,26.40
2022-10-31T15:20:13.714Z,26.40
2022-10-31T15:22:41.250Z,26.40
2022-10-31T15:25:17.879Z,26.40
2022-10-31T15:27:46.548Z,26.40
2022-10-31T15:30:32.146Z,26.40
2022-10-31T15:32:59.642Z,26.40
2022-10-31T15:35:31.483Z,26.40
2022-10-31T15:38:01.157Z,26.40
2022-10-31T15:40:29.487Z,26.40
2022-10-31T15:43:04.533Z,26.40
2022-10-31T15:45:33.509Z,26.40
2022-10-31T15:48:02.964Z,26.40
2022-10-31T15:50:38.815Z,26.40
2022-10-31T15:53:07.540Z,26.40
2022-10-31T15:55:38.718Z,26.40
2022-10-31T15:58:13.054Z,26.40
2022-10-31T16:00:40.755Z,26.40
2022-10-31T16:03:20.582Z,26.40
2022-10-31T16:05:49.469Z,26.40
2022-10-31T16:08:32.107Z,26.40
2022-10-31T16:11:01.233Z,26.40
2022-10-31T16:13:30.410Z,26.40
2022-10-31T16:18:54.194Z,26.40
2022-10-31T16:21:27.119Z,26.40
2022-10-31T16:23:58.264Z,26.30
2022-10-31T16:26:26.196Z,26.30
2022-10-31T16:29:03.306Z,26.30
2022-10-31T16:31:41.679Z,26.30
2022-10-31T16:34:15.408Z,26.30
2022-10-31T16:36:43.221Z,26.20
2022-10-31T16:39:10.838Z,26.30
2022-10-31T16:41:45.848Z,26.20
2022-10-31T16:44:33.473Z,26.20
2022-10-31T16:47:17.417Z,26.20
2022-10-31T16:49:45.546Z,26.20
2022-10-31T16:52:13.977Z,26.20
2022-10-31T16:54:42.290Z,26.10
2022-10-31T16:57:14.558Z,26.10
2022-10-31T16:59:42.900Z,26.10
2022-10-31T17:02:17.148Z,26.00
2022-10-31T17:04:45.688Z,26.00
2022-10-31T17:07:13.195Z,26.00
2022-10-31T17:09:41.044Z,25.90
2022-10-31T17:12:13.249Z,25.90
2022-10-31T17:14:40.745Z,25.90
2022-10-31T17:17:08.851Z,25.80
2022-10-31T17:19:36.440Z,25.80
2022-10-31T17:22:04.113Z,25.80
2022-10-31T17:24:31.615Z,25.70
2022-10-31T17:26:59.145Z,25.70
2022-10-31T17:29:26.670Z,25.60
2022-10-31T17:31:55.795Z,25.60
2022-10-31T17:34:24.158Z,25.60
2022-10-31T17:36:53.721Z,25.50
2022-10-31T17:39:21.309Z,25.50
2022-10-31T17:41:53.330Z,25.50
2022-10-31T17:44:20.925Z,25.50
2022-10-31T17:46:48.450Z,25.50
2022-10-31T17:49:16.015Z,25.50
2022-10-31T17:51:43.558Z,25.40
2022-10-31T17:54:11.079Z,25.40
2022-10-31T17:56:38.868Z,25.40
2022-10-31T17:59:07.828Z,25.40
2022-10-31T18:01:35.605Z,25.30
2022-10-31T18:04:03.946Z,25.40
2022-10-31T18:06:31.580Z,25.30
2022-10-31T18:09:03.706Z,25.30
2022-10-31T18:11:31.581Z,25.20
2022-10-31T18:13:59.818Z,25.20
2022-10-31T18:16:27.698Z,25.20
2022-10-31T18:19:02.541Z,25.10
2022-10-31T18:21:30.811Z,25.10
2022-10-31T18:23:59.021Z,25.10
2022-10-31T18:26:27.460Z,25.00
2022-10-31T18:28:55.159Z,25.00
2022-10-31T18:31:23.782Z,25.00
2022-10-31T18:33:55.811Z,25.00
2022-10-31T18:36:24.036Z,25.00
2022-10-31T18:38:51.553Z,25.00
2022-10-31T18:41:19.881Z,24.90
2022-10-31T18:43:47.516Z,24.90
2022-10-31T18:46:16.472Z,24.90
2022-10-31T18:48:45.647Z,24.90
2022-10-31T18:51:14.748Z,24.90
2022-10-31T18:53:42.260Z,24.90
2022-10-31T18:56:10.862Z,24.80
2022-10-31T18:58:38.616Z,24.80
2022-10-31T19:01:10.963Z,24.80
2022-10-31T19:03:39.352Z,24.80
2022-10-31T19:06:07.519Z,24.80
2022-10-31T19:08:35.075Z,24.80
2022-10-31T19:11:08.708Z,24.80
2022-10-31T19:13:36.734Z,24.80
2022-10-31T19:16:05.489Z,24.80
2022-10-31T19:18:33.011Z,24.80
2022-10-31T19:21:00.524Z,24.70
2022-10-31T19:23:28.269Z,24.70
2022-10-31T19:25:58.466Z,24.70
2022-10-31T19:28:26.476Z,24.70
2022-10-31T19:30:56.891Z,24.60
2022-10-31T19:33:29.461Z,24.70
2022-10-31T19:36:04.041Z,24.70
2022-10-31T19:38:32.345Z,24.60
2022-10-31T19:41:01.344Z,24.60
2022-10-31T19:43:29.872Z,24.60
2022-10-31T19:45:58.529Z,24.60
2022-10-31T19:48:26.479Z,24.60
2022-10-31T19:50:58.524Z,24.60
2022-10-31T19:53:26.186Z,24.60
2022-10-31T19:55:53.645Z,24.50
2022-10-31T19:58:21.123Z,24.60
2022-10-31T20:00:48.762Z,24.50
2022-10-31T20:03:19.819Z,24.50
2022-10-31T20:05:50.474Z,24.60
2022-10-31T20:08:19.511Z,24.50
2022-10-31T20:11:02.923Z,24.50
2022-10-31T20:13:31.547Z,24.50
2022-10-31T20:16:00.636Z,24.50
2022-10-31T20:18:28.242Z,24.50
2022-10-31T20:21:04.673Z,24.50
2022-10-31T20:23:33.219Z,24.40
2022-10-31T20:26:02.277Z,24.40
2022-10-31T20:28:33.826Z,24.40
2022-10-31T20:31:01.974Z,24.50
2022-10-31T20:33:29.511Z,24.40
2022-10-31T20:35:57.073Z,24.40
2022-10-31T20:38:24.872Z,24.40
2022-10-31T20:40:52.350Z,24.40
2022-10-31T20:43:19.894Z,24.40
2022-10-31T20:45:47.539Z,24.30
2022-10-31T20:48:15.032Z,24.40
2022-10-31T20:50:43.342Z,24.40
2022-10-31T20:53:10.950Z,24.30
2022-10-31T20:55:39.279Z,24.40
2022-10-31T20:58:06.768Z,24.30
2022-10-31T21:00:34.346Z,24.30
2022-10-31T21:03:01.903Z,24.30
2022-10-31T21:05:30.486Z,24.30
2022-10-31T21:07:58.058Z,24.30
2022-10-31T21:10:25.588Z,24.30
2022-10-31T21:12:53.129Z,24.20
2022-10-31T21:15:20.587Z,24.20
2022-10-31T21:17:48.057Z,24.20
2022-10-31T21:20:15.610Z,24.20
2022-10-31T21:22:43.873Z,24.10
2022-10-31T21:25:12.136Z,24.10
2022-10-31T21:27:41.111Z,24.00
2022-10-31T21:30:08.779Z,23.90
2022-10-31T21:32:36.254Z,23.90
2022-10-31T21:35:08.132Z,23.80
2022-10-31T21:37:35.670Z,23.80
2022-10-31T21:40:03.985Z,23.70
2022-10-31T21:42:32.253Z,23.70
2022-10-31T21:44:59.734Z,23.70
2022-10-31T21:47:27.222Z,23.60
2022-10-31T21:49:54.768Z,23.60
2022-10-31T21:52:22.236Z,23.50
2022-10-31T21:54:49.735Z,23.50
2022-10-31T21:57:17.344Z,23.50
2022-10-31T21:59:48.615Z,23.40
2022-10-31T22:02:16.245Z,23.40
2022-10-31T22:04:44.453Z,23.30
2022-10-31T22:07:11.939Z,23.30
2022-10-31T22:09:41.463Z,23.30
2022-10-31T22:12:10.019Z,23.20
2022-10-31T22:14:38.419Z,23.20
2022-10-31T22:17:05.949Z,23.20
2022-10-31T22:19:33.519Z,23.20
2022-10-31T22:22:01.971Z,23.10
2022-10-31T22:24:29.566Z,23.10
2022-10-31T22:26:57.118Z,23.10
2022-10-31T22:29:24.652Z,23.10
2022-10-31T22:31:58.659Z,23.00
2022-10-31T22:34:28.094Z,23.10
2022-10-31T22:36:56.521Z,23.00
2022-10-31T22:39:24.122Z,23.00
2022-10-31T22:41:51.607Z,23.00
2022-10-31T22:44:19.342Z,23.00
2022-10-31T22:46:46.830Z,23.00
2022-10-31T22:49:15.227Z,22.90
2022-10-31T22:51:43.558Z,22.90
2022-10-31T22:54:15.861Z,22.90
2022-10-31T22:56:43.380Z,22.90
2022-10-31T22:59:14.996Z,23.00
2022-10-31T23:01:45.077Z,22.90
2022-10-31T23:04:13.388Z,22.90
2022-10-31T23:06:41.898Z,22.90
2022-10-31T23:09:11.449Z,22.90
2022-10-31T23:11:39.739Z,22.90
2022-10-31T23:14:14.405Z,22.90
2022-10-31T23:16:42.064Z,22.80
2022-10-31T23:19:10.601Z,22.80
2022-10-31T23:22:11.730Z,22.80
2022-10-31T23:24:40.641Z,22.90
2022-10-31T23:27:17.165Z,22.90
2022-10-31T23:29:47.290Z,22.90
2022-10-31T23:32:35.523Z,22.80
2022-10-31T23:35:04.718Z,22.80
2022-10-31T23:37:33.400Z,22.80
2022-10-31T23:40:01.752Z,22.80
2022-10-31T23:42:29.363Z,22.90
2022-10-31T23:44:56.875Z,22.90
2022-10-31T23:47:24.434Z,22.90
2022-10-31T23:49:52.106Z,22.90
2022-10-31T23:52:19.782Z,23.00
2022-10-31T23:54:47.355Z,23.00
2022-10-31T23:57:15.861Z,23.00
2022-10-31T23:59:43.650Z,23.10
